createdAt,value
2022-10-09T00:00:38.720Z,93.18
2022-10-09T00:03:07.962Z,93.08
2022-10-09T00:05:36.015Z,92.74
2022-10-09T00:08:05.395Z,93.24
2022-10-09T00:10:33.705Z,94.03
2022-10-09T00:13:02.037Z,94.83
2022-10-09T00:15:30.908Z,95.08
2022-10-09T00:17:58.499Z,94.18
2022-10-09T00:20:28.447Z,95.17
2022-10-09T00:23:00.135Z,95.05
2022-10-09T00:25:27.525Z,95.50
2022-10-09T00:27:57.384Z,95.34
2022-10-09T00:30:29.437Z,95.03
2022-10-09T00:32:59.762Z,95.77
2022-10-09T00:35:27.561Z,96.05
2022-10-09T00:37:55.671Z,96.65
2022-10-09T00:40:26.301Z,96.70
2022-10-09T00:42:59.003Z,97.06
2022-10-09T00:45:27.464Z,97.98
2022-10-09T00:47:58.498Z,96.61
2022-10-09T00:50:42.248Z,97.12
2022-10-09T00:53:14.994Z,96.68
2022-10-09T00:55:43.657Z,96.68
2022-10-09T00:58:13.309Z,97.02
2022-10-09T01:00:43.104Z,96.94
2022-10-09T01:03:11.161Z,96.30
2022-10-09T01:06:48.036Z,96.97
2022-10-09T01:09:23.926Z,96.70
2022-10-09T01:12:13.518Z,97.29
2022-10-09T01:15:06.502Z,97.31
2022-10-09T01:17:38.422Z,97.96
2022-10-09T01:20:06.490Z,97.62
2022-10-09T01:23:03.222Z,98.44
2022-10-09T01:25:51.609Z,99.22
2022-10-09T01:28:20.686Z,98.55
2022-10-09T01:30:52.132Z,98.79
2022-10-09T01:33:22.134Z,98.67
2022-10-09T01:35:55.014Z,99.75
2022-10-09T01:38:23.228Z,99.84
2022-10-09T01:40:54.148Z,100.00
2022-10-09T01:43:25.737Z,100.00
2022-10-09T01:46:13.514Z,100.00
2022-10-09T01:48:43.578Z,100.00
2022-10-09T01:51:12.662Z,100.00
2022-10-09T01:53:40.374Z,100.00
2022-10-09T01:56:19.661Z,100.00
2022-10-09T01:59:12.393Z,100.00
2022-10-09T02:01:45.138Z,100.00
2022-10-09T02:04:20.922Z,100.00
2022-10-09T02:06:50.270Z,100.00
2022-10-09T02:09:19.399Z,100.00
2022-10-09T02:11:53.499Z,100.00
2022-10-09T02:14:21.163Z,100.00
2022-10-09T02:16:57.456Z,100.00
2022-10-09T02:19:40.324Z,100.00
2022-10-09T02:22:12.761Z,100.00
2022-10-09T02:24:42.735Z,100.00
2022-10-09T02:27:11.634Z,100.00
2022-10-09T02:29:45.210Z,100.00
2022-10-09T02:32:13.553Z,100.00
2022-10-09T02:34:43.010Z,100.00
2022-10-09T02:37:19.225Z,100.00
2022-10-09T02:39:51.327Z,100.00
2022-10-09T02:42:18.423Z,100.00
2022-10-09T02:44:48.406Z,100.00
2022-10-09T02:47:16.952Z,100.00
2022-10-09T02:49:50.668Z,100.00
2022-10-09T02:52:21.483Z,100.00
2022-10-09T02:54:51.237Z,100.00
2022-10-09T02:57:21.129Z,100.00
2022-10-09T02:59:52.213Z,100.00
2022-10-09T03:02:23.892Z,100.00
2022-10-09T03:04:52.871Z,100.00
2022-10-09T03:07:20.320Z,100.00
2022-10-09T03:09:53.239Z,100.00
2022-10-09T03:12:22.767Z,100.00
2022-10-09T03:14:51.858Z,100.00
2022-10-09T03:17:21.369Z,100.00
2022-10-09T03:19:48.649Z,100.00
2022-10-09T03:22:16.797Z,100.00
2022-10-09T03:24:46.909Z,100.00
2022-10-09T03:27:14.217Z,100.00
2022-10-09T03:29:42.674Z,100.00
2022-10-09T03:32:10.585Z,100.00
2022-10-09T03:34:38.468Z,100.00
2022-10-09T03:37:10.044Z,100.00
2022-10-09T03:39:39.794Z,100.00
2022-10-09T03:42:12.350Z,100.00
2022-10-09T03:44:45.155Z,100.00
2022-10-09T03:47:13.799Z,100.00
2022-10-09T03:49:45.270Z,100.00
2022-10-09T03:52:13.484Z,100.00
2022-10-09T03:54:44.169Z,100.00
2022-10-09T03:57:12.610Z,100.00
2022-10-09T03:59:40.003Z,100.00
2022-10-09T04:02:10.315Z,100.00
2022-10-09T04:04:38.568Z,100.00
2022-10-09T04:07:17.986Z,100.00
2022-10-09T04:09:50.210Z,100.00
2022-10-09T04:12:17.545Z,100.00
2022-10-09T04:14:45.266Z,100.00
2022-10-09T04:17:12.377Z,98.98
2022-10-09T04:19:39.531Z,99.49
2022-10-09T04:22:06.686Z,100.00
2022-10-09T04:24:33.882Z,100.00
2022-10-09T04:27:03.254Z,100.00
2022-10-09T04:29:31.354Z,100.00
2022-10-09T04:31:58.828Z,100.00
2022-10-09T04:34:26.673Z,100.00
2022-10-09T04:36:56.463Z,100.00
2022-10-09T04:39:23.573Z,100.00
2022-10-09T04:41:51.101Z,100.00
2022-10-09T04:44:18.258Z,100.00
2022-10-09T04:46:47.586Z,100.00
2022-10-09T04:49:18.544Z,100.00
2022-10-09T04:51:47.052Z,100.00
2022-10-09T04:54:14.482Z,100.00
2022-10-09T04:56:42.013Z,100.00
2022-10-09T04:59:09.370Z,100.00
2022-10-09T05:01:38.505Z,100.00
2022-10-09T05:04:05.950Z,100.00
2022-10-09T05:06:33.205Z,100.00
2022-10-09T05:09:01.387Z,100.00
2022-10-09T05:11:28.720Z,100.00
2022-10-09T05:13:56.615Z,100.00
2022-10-09T05:16:26.668Z,100.00
2022-10-09T05:18:56.489Z,100.00
2022-10-09T05:21:25.098Z,100.00
2022-10-09T05:23:54.536Z,100.00
2022-10-09T05:26:23.184Z,100.00
2022-10-09T05:28:50.787Z,100.00
2022-10-09T05:31:22.047Z,99.24
2022-10-09T05:33:49.721Z,98.43
2022-10-09T05:36:17.169Z,98.08
2022-10-09T05:38:44.540Z,98.56
2022-10-09T05:41:16.870Z,97.79
2022-10-09T05:43:45.652Z,96.46
2022-10-09T05:46:25.190Z,97.07
2022-10-09T05:49:00.825Z,96.51
2022-10-09T05:51:35.901Z,97.17
2022-10-09T05:54:04.070Z,96.23
2022-10-09T05:56:37.264Z,96.78
2022-10-09T05:59:06.759Z,95.88
2022-10-09T06:01:38.059Z,96.04
2022-10-09T06:04:12.831Z,95.96
2022-10-09T06:06:43.786Z,96.11
2022-10-09T06:09:13.010Z,96.25
2022-10-09T06:11:43.014Z,95.40
2022-10-09T06:14:14.590Z,94.86
2022-10-09T06:16:44.429Z,94.61
2022-10-09T06:19:19.542Z,94.51
2022-10-09T06:21:48.289Z,94.01
2022-10-09T06:24:28.279Z,93.79
2022-10-09T06:26:59.638Z,94.08
2022-10-09T06:29:29.974Z,93.93
2022-10-09T06:31:59.319Z,93.58
2022-10-09T06:34:29.961Z,93.33
2022-10-09T06:36:58.415Z,92.64
2022-10-09T06:39:30.886Z,93.17
2022-10-09T06:42:01.212Z,94.33
2022-10-09T06:44:29.841Z,92.94
2022-10-09T06:46:58.452Z,92.92
2022-10-09T06:49:25.806Z,92.73
2022-10-09T06:51:54.161Z,92.62
2022-10-09T06:54:29.580Z,91.85
2022-10-09T06:56:58.322Z,93.62
2022-10-09T06:59:31.424Z,93.05
2022-10-09T07:02:01.055Z,93.68
2022-10-09T07:04:29.179Z,93.81
2022-10-09T07:06:59.571Z,94.32
2022-10-09T07:09:27.421Z,94.59
2022-10-09T07:11:56.873Z,94.34
2022-10-09T07:14:24.236Z,94.00
2022-10-09T07:16:55.726Z,94.45
2022-10-09T07:19:26.511Z,93.85
2022-10-09T07:21:54.130Z,94.39
2022-10-09T07:24:24.985Z,94.24
2022-10-09T07:27:04.348Z,94.03
2022-10-09T07:29:39.306Z,93.75
2022-10-09T07:32:12.897Z,93.75
2022-10-09T07:34:45.558Z,93.06
2022-10-09T07:37:13.690Z,92.93
2022-10-09T07:39:45.021Z,93.34
2022-10-09T07:42:17.100Z,92.98
2022-10-09T07:44:46.991Z,93.80
2022-10-09T07:47:21.342Z,93.01
2022-10-09T07:50:01.354Z,93.64
2022-10-09T07:52:32.635Z,92.64
2022-10-09T07:55:02.499Z,92.37
2022-10-09T07:57:29.656Z,92.42
2022-10-09T07:59:56.853Z,92.40
2022-10-09T08:02:24.223Z,91.86
2022-10-09T08:04:53.995Z,92.06
2022-10-09T08:07:21.157Z,91.43
2022-10-09T08:09:49.238Z,91.64
2022-10-09T08:12:16.552Z,91.67
2022-10-09T08:14:47.345Z,91.12
2022-10-09T08:17:15.404Z,90.97
2022-10-09T08:19:43.570Z,90.83
2022-10-09T08:22:12.611Z,91.01
2022-10-09T08:24:48.912Z,90.81
2022-10-09T08:27:16.686Z,90.19
2022-10-09T08:29:43.813Z,90.65
2022-10-09T08:32:11.446Z,90.57
2022-10-09T08:34:39.451Z,90.18
2022-10-09T08:37:06.878Z,90.17
2022-10-09T08:39:35.067Z,90.10
2022-10-09T08:42:03.667Z,90.58
2022-10-09T08:44:39.933Z,90.30
2022-10-09T08:47:19.075Z,89.76
2022-10-09T08:50:15.893Z,89.60
2022-10-09T08:53:07.870Z,89.74
2022-10-09T08:55:49.619Z,89.87
2022-10-09T08:58:19.551Z,88.83
2022-10-09T09:00:55.055Z,89.05
2022-10-09T09:03:29.962Z,88.62
2022-10-09T09:06:05.907Z,88.25
2022-10-09T09:08:48.597Z,87.68
2022-10-09T09:11:50.060Z,87.69
2022-10-09T09:15:02.480Z,87.49
2022-10-09T09:17:53.894Z,87.31
2022-10-09T09:20:21.100Z,85.96
2022-10-09T09:22:54.415Z,85.29
2022-10-09T09:25:26.278Z,84.72
2022-10-09T09:27:58.527Z,84.25
2022-10-09T09:30:38.360Z,84.65
2022-10-09T09:33:21.897Z,84.56
2022-10-09T09:36:31.132Z,84.67
2022-10-09T09:41:46.634Z,83.74
2022-10-09T09:44:17.001Z,83.41
2022-10-09T09:46:44.845Z,83.12
2022-10-09T09:49:27.462Z,82.64
2022-10-09T09:51:56.615Z,80.96
2022-10-09T09:54:27.198Z,80.54
2022-10-09T09:57:21.950Z,79.52
2022-10-09T09:59:59.576Z,79.31
2022-10-09T10:02:31.416Z,78.20
2022-10-09T10:05:03.838Z,79.45
2022-10-09T10:08:00.992Z,78.80
2022-10-09T10:10:30.550Z,76.24
2022-10-09T10:13:06.750Z,75.60
2022-10-09T10:15:38.993Z,75.80
2022-10-09T10:18:14.910Z,76.34
2022-10-09T10:20:49.880Z,75.76
2022-10-09T10:24:08.469Z,74.95
2022-10-09T10:26:44.826Z,71.24
2022-10-09T10:29:22.384Z,72.52
2022-10-09T10:32:13.869Z,71.86
2022-10-09T10:35:06.908Z,72.92
2022-10-09T10:37:51.022Z,72.36
2022-10-09T10:40:27.900Z,71.81
2022-10-09T10:43:14.682Z,70.48
2022-10-09T10:45:44.616Z,69.60
2022-10-09T10:48:30.736Z,66.49
2022-10-09T10:51:07.037Z,65.55
2022-10-09T10:53:53.642Z,65.46
2022-10-09T10:56:44.948Z,66.60
2022-10-09T10:59:39.623Z,64.50
2022-10-09T11:02:32.732Z,64.30
2022-10-09T11:05:22.306Z,63.55
2022-10-09T11:08:08.205Z,62.24
2022-10-09T11:10:45.455Z,60.73
2022-10-09T11:13:29.820Z,62.35
2022-10-09T11:16:37.464Z,61.68
2022-10-09T11:20:19.190Z,58.54
2022-10-09T11:23:03.564Z,58.10
2022-10-09T11:25:50.452Z,58.15
2022-10-09T11:29:01.440Z,57.41
2022-10-09T11:31:51.608Z,56.06
2022-10-09T11:34:47.197Z,53.66
2022-10-09T11:37:21.857Z,54.86
2022-10-09T11:39:49.258Z,54.05
2022-10-09T11:42:20.821Z,53.34
2022-10-09T11:44:58.669Z,52.37
2022-10-09T11:47:42.453Z,51.37
2022-10-09T11:50:37.450Z,48.78
2022-10-09T11:53:11.469Z,48.61
2022-10-09T11:55:45.008Z,48.34
2022-10-09T11:59:00.291Z,47.91
2022-10-09T12:01:42.685Z,48.54
2022-10-09T12:04:15.487Z,49.81
2022-10-09T12:06:48.499Z,46.46
2022-10-09T12:09:30.884Z,49.36
2022-10-09T12:12:20.130Z,48.42
2022-10-09T12:14:50.403Z,47.08
2022-10-09T12:17:23.446Z,43.97
2022-10-09T12:20:11.559Z,43.80
2022-10-09T12:23:07.241Z,42.08
2022-10-09T12:25:48.337Z,45.21
2022-10-09T12:28:22.445Z,39.56
2022-10-09T12:31:30.742Z,41.88
2022-10-09T12:34:06.689Z,38.40
2022-10-09T12:36:37.269Z,42.10
2022-10-09T12:39:37.629Z,38.45
2022-10-09T12:42:05.240Z,35.69
2022-10-09T12:44:39.878Z,39.72
2022-10-09T12:47:26.254Z,40.31
2022-10-09T12:50:12.580Z,38.63
2022-10-09T12:53:00.770Z,36.51
2022-10-09T12:55:51.877Z,34.98
2022-10-09T12:58:36.413Z,37.24
2022-10-09T13:01:08.451Z,38.26
2022-10-09T13:03:41.055Z,39.62
2022-10-09T13:06:19.673Z,38.47
2022-10-09T13:08:52.346Z,38.58
2022-10-09T13:11:34.827Z,38.65
2022-10-09T13:14:04.793Z,40.61
2022-10-09T13:16:44.601Z,40.59
2022-10-09T13:19:39.707Z,38.55
2022-10-09T13:22:13.286Z,36.91
2022-10-09T13:24:40.856Z,37.17
2022-10-09T13:27:10.455Z,34.94
2022-10-09T13:29:37.817Z,39.42
2022-10-09T13:32:05.617Z,39.17
2022-10-09T13:34:32.936Z,41.21
2022-10-09T13:37:00.567Z,40.45
2022-10-09T13:39:27.891Z,40.41
2022-10-09T13:41:57.810Z,39.56
2022-10-09T13:44:26.991Z,37.96
2022-10-09T13:46:55.431Z,39.72
2022-10-09T13:49:24.429Z,40.02
2022-10-09T13:51:51.715Z,39.65
2022-10-09T13:54:18.935Z,39.23
2022-10-09T13:56:46.450Z,39.29
2022-10-09T13:59:13.821Z,38.26
2022-10-09T14:01:45.417Z,36.59
2022-10-09T14:04:12.644Z,36.06
2022-10-09T14:06:41.591Z,34.42
2022-10-09T14:09:11.511Z,35.18
2022-10-09T14:11:38.623Z,35.84
2022-10-09T14:14:05.982Z,35.46
2022-10-09T14:16:33.422Z,36.52
2022-10-09T14:19:05.019Z,35.99
2022-10-09T14:21:32.771Z,33.87
2022-10-09T14:24:02.153Z,34.13
2022-10-09T14:26:30.494Z,34.05
2022-10-09T14:29:00.204Z,35.96
2022-10-09T14:31:30.371Z,34.83
2022-10-09T14:33:59.375Z,35.83
2022-10-09T14:36:27.291Z,36.88
2022-10-09T14:38:55.088Z,36.82
2022-10-09T14:41:25.508Z,38.06
2022-10-09T14:43:59.991Z,36.65
2022-10-09T14:46:28.340Z,37.87
2022-10-09T14:48:56.646Z,36.97
2022-10-09T14:51:26.141Z,38.71
2022-10-09T14:53:58.362Z,37.61
2022-10-09T14:56:26.782Z,38.13
2022-10-09T14:58:54.327Z,38.08
2022-10-09T15:01:22.711Z,38.77
2022-10-09T15:03:50.116Z,38.82
2022-10-09T15:06:20.183Z,39.01
2022-10-09T15:08:47.454Z,39.10
2022-10-09T15:11:16.172Z,39.36
2022-10-09T15:13:43.314Z,40.20
2022-10-09T15:16:17.763Z,41.07
2022-10-09T15:18:45.765Z,41.08
2022-10-09T15:21:17.587Z,42.50
2022-10-09T15:23:45.135Z,42.38
2022-10-09T15:26:15.143Z,43.08
2022-10-09T15:28:44.869Z,42.60
2022-10-09T15:31:35.723Z,42.98
2022-10-09T15:34:05.448Z,43.62
2022-10-09T15:36:35.488Z,44.01
2022-10-09T15:39:06.052Z,43.37
2022-10-09T15:41:37.552Z,43.56
2022-10-09T15:44:08.881Z,43.83
2022-10-09T15:46:36.055Z,44.28
2022-10-09T15:49:04.283Z,43.93
2022-10-09T15:51:33.411Z,44.38
2022-10-09T15:54:05.874Z,44.83
2022-10-09T15:56:43.268Z,44.88
2022-10-09T15:59:16.994Z,45.57
2022-10-09T16:01:49.796Z,45.46
2022-10-09T16:04:28.934Z,46.53
2022-10-09T16:07:02.418Z,47.13
2022-10-09T16:09:41.947Z,47.32
2022-10-09T16:12:15.271Z,47.40
2022-10-09T16:14:47.652Z,48.46
2022-10-09T16:17:17.605Z,48.40
2022-10-09T16:19:45.844Z,48.42
2022-10-09T16:22:13.050Z,48.93
2022-10-09T16:24:42.494Z,48.71
2022-10-09T16:27:09.958Z,49.02
2022-10-09T16:29:39.610Z,49.08
2022-10-09T16:32:06.821Z,49.73
2022-10-09T16:34:34.016Z,49.57
2022-10-09T16:37:04.564Z,50.25
2022-10-09T16:39:31.857Z,50.46
2022-10-09T16:42:05.834Z,50.79
2022-10-09T16:44:34.008Z,50.76
2022-10-09T16:47:07.078Z,51.16
2022-10-09T16:49:37.963Z,51.45
2022-10-09T16:52:05.290Z,51.38
2022-10-09T16:54:32.386Z,51.77
2022-10-09T16:56:59.591Z,52.21
2022-10-09T16:59:26.774Z,52.30
2022-10-09T17:01:55.247Z,52.22
2022-10-09T17:04:24.319Z,52.10
2022-10-09T17:14:34.968Z,53.21
2022-10-09T17:17:08.070Z,53.87
2022-10-09T17:19:41.974Z,53.83
2022-10-09T17:22:09.168Z,54.01
2022-10-09T17:24:36.963Z,54.13
2022-10-09T17:27:11.409Z,54.29
2022-10-09T17:29:43.016Z,54.57
2022-10-09T17:32:16.388Z,54.65
2022-10-09T17:34:45.982Z,55.22
2022-10-09T17:37:18.657Z,55.13
2022-10-09T17:39:52.061Z,55.95
2022-10-09T17:42:26.933Z,55.81
2022-10-09T17:45:18.931Z,56.21
2022-10-09T17:47:58.718Z,55.91
2022-10-09T17:50:31.186Z,56.49
2022-10-09T17:53:24.073Z,56.62
2022-10-09T17:56:09.736Z,56.58
2022-10-09T17:58:43.458Z,56.72
2022-10-09T18:01:20.459Z,56.66
2022-10-09T18:03:55.599Z,56.52
2022-10-09T18:07:01.510Z,57.14
2022-10-09T18:09:40.937Z,56.88
2022-10-09T18:12:10.957Z,56.93
2022-10-09T18:14:44.601Z,57.05
2022-10-09T18:17:16.911Z,56.98
2022-10-09T18:19:50.539Z,57.07
2022-10-09T18:22:22.579Z,57.36
2022-10-09T18:24:50.174Z,57.31
2022-10-09T18:27:35.394Z,57.21
2022-10-09T18:30:06.848Z,57.36
2022-10-09T18:32:35.290Z,57.15
2022-10-09T18:35:17.905Z,57.70
2022-10-09T18:37:47.486Z,57.72
2022-10-09T18:40:20.037Z,57.80
2022-10-09T18:42:52.879Z,58.57
2022-10-09T18:45:21.600Z,58.34
2022-10-09T18:48:05.852Z,58.00
2022-10-09T18:50:36.693Z,59.34
2022-10-09T18:53:07.090Z,58.91
2022-10-09T18:55:35.628Z,58.92
2022-10-09T18:58:05.536Z,58.60
2022-10-09T19:00:32.916Z,58.42
2022-10-09T19:03:02.685Z,58.67
2022-10-09T19:05:36.022Z,58.74
2022-10-09T19:08:06.055Z,58.27
2022-10-09T19:11:02.345Z,58.39
2022-10-09T19:13:39.696Z,59.46
2022-10-09T19:16:30.555Z,59.29
2022-10-09T19:19:19.125Z,59.38
2022-10-09T19:22:14.952Z,59.36
2022-10-09T19:24:56.135Z,59.50
2022-10-09T19:27:44.832Z,59.44
2022-10-09T19:33:05.239Z,59.59
2022-10-09T19:38:20.259Z,59.50
2022-10-09T19:40:51.976Z,59.91
2022-10-09T19:43:21.397Z,60.45
2022-10-09T19:45:53.822Z,60.45
2022-10-09T19:48:30.519Z,60.62
2022-10-09T19:51:15.956Z,60.35
2022-10-09T19:53:48.695Z,60.62
2022-10-09T19:56:27.320Z,61.30
2022-10-09T19:58:58.220Z,61.32
2022-10-09T20:01:32.563Z,61.20
2022-10-09T20:04:11.102Z,61.35
2022-10-09T20:06:50.658Z,62.02
2022-10-09T20:09:22.705Z,61.31
2022-10-09T20:12:23.140Z,61.58
2022-10-09T20:14:51.218Z,61.88
2022-10-09T20:17:21.966Z,61.47
2022-10-09T20:19:52.959Z,61.77
2022-10-09T20:22:28.611Z,61.90
2022-10-09T20:25:00.226Z,62.13
2022-10-09T20:27:38.489Z,62.03
2022-10-09T20:30:10.963Z,62.63
2022-10-09T20:32:43.995Z,62.65
2022-10-09T20:38:30.774Z,62.87
2022-10-09T20:41:11.427Z,63.19
2022-10-09T20:43:44.162Z,62.87
2022-10-09T20:46:27.293Z,63.01
2022-10-09T20:52:14.178Z,63.55
2022-10-09T20:54:47.666Z,63.74
2022-10-09T20:57:21.190Z,63.65
2022-10-09T20:59:50.749Z,63.66
2022-10-09T21:02:23.269Z,63.28
2022-10-09T21:05:00.632Z,63.79
2022-10-09T21:07:32.472Z,64.01
2022-10-09T21:10:07.325Z,64.00
2022-10-09T21:12:50.383Z,64.30
2022-10-09T21:15:24.135Z,64.32
2022-10-09T21:20:41.963Z,65.01
2022-10-09T21:23:10.224Z,65.42
2022-10-09T21:25:47.814Z,65.53
2022-10-09T21:28:38.900Z,65.55
2022-10-09T21:31:13.868Z,66.16
2022-10-09T21:33:43.189Z,65.73
2022-10-09T21:36:30.662Z,66.06
2022-10-09T21:39:15.909Z,66.05
2022-10-09T21:41:51.401Z,66.33
2022-10-09T21:44:23.089Z,66.90
2022-10-09T21:46:59.195Z,66.85
2022-10-09T21:50:54.415Z,66.64
2022-10-09T21:53:45.980Z,67.02
2022-10-09T21:56:28.190Z,67.03
2022-10-09T21:59:05.157Z,66.75
2022-10-09T22:04:37.055Z,66.71
2022-10-09T22:07:13.819Z,67.22
2022-10-09T22:09:43.343Z,68.15
2022-10-09T22:12:16.229Z,68.19
2022-10-09T22:14:55.071Z,68.32
2022-10-09T22:17:36.401Z,69.05
2022-10-09T22:20:08.680Z,68.92
2022-10-09T22:22:38.226Z,68.56
2022-10-09T22:25:08.912Z,68.63
2022-10-09T22:27:44.887Z,68.63
2022-10-09T22:30:24.038Z,69.19
2022-10-09T22:33:05.543Z,68.70
2022-10-09T22:35:35.181Z,69.19
2022-10-09T22:38:10.248Z,70.35
2022-10-09T22:41:01.262Z,69.98
2022-10-09T22:43:34.670Z,70.26
2022-10-09T22:46:10.597Z,70.19
2022-10-09T22:48:52.771Z,70.03
2022-10-09T22:51:29.761Z,69.38
2022-10-09T22:53:59.904Z,69.64
2022-10-09T22:56:30.004Z,69.14
2022-10-09T22:58:58.275Z,69.55
2022-10-09T23:01:36.371Z,69.72
2022-10-09T23:04:15.091Z,69.45
2022-10-09T23:06:47.138Z,69.25
2022-10-09T23:09:16.574Z,69.53
2022-10-09T23:11:44.290Z,69.68
2022-10-09T23:14:14.401Z,69.18
2022-10-09T23:16:43.934Z,70.40
2022-10-09T23:19:15.134Z,69.90
2022-10-09T23:21:50.219Z,70.11
2022-10-09T23:24:19.808Z,70.58
2022-10-09T23:26:51.130Z,70.47
2022-10-09T23:29:27.495Z,71.52
2022-10-09T23:32:01.770Z,70.60
2022-10-09T23:34:29.622Z,70.69
2022-10-09T23:36:58.363Z,70.80
2022-10-09T23:39:26.971Z,70.76
2022-10-09T23:42:01.363Z,70.54
2022-10-09T23:44:31.381Z,70.69
2022-10-09T23:47:00.686Z,71.31
2022-10-09T23:49:29.460Z,71.31
2022-10-09T23:51:57.759Z,71.45
2022-10-09T23:54:28.698Z,71.37
2022-10-09T23:56:56.664Z,72.05
2022-10-09T23:59:26.150Z,71.61
